地図

経路データ

SID SEASON NUMBER BASIN SUBBASIN NAME ISO_TIME NATURE LAT LON WMO_WIND WMO_PRES WMO_AGENCY TRACK_TYPE DIST2LAND LANDFALL IFLAG USA_AGENCY USA_ATCF_ID USA_LAT USA_LON USA_RECORD USA_STATUS USA_WIND USA_PRES USA_SSHS USA_R34_NE USA_R34_SE USA_R34_SW USA_R34_NW USA_R50_NE USA_R50_SE USA_R50_SW USA_R50_NW USA_R64_NE USA_R64_SE USA_R64_SW USA_R64_NW USA_POCI USA_ROCI USA_RMW USA_EYE TOKYO_LAT TOKYO_LON TOKYO_GRADE TOKYO_WIND TOKYO_PRES TOKYO_R50_DIR TOKYO_R50_LONG TOKYO_R50_SHORT TOKYO_R30_DIR TOKYO_R30_LONG TOKYO_R30_SHORT TOKYO_LAND CMA_LAT CMA_LON CMA_CAT CMA_WIND CMA_PRES HKO_LAT HKO_LON HKO_CAT HKO_WIND HKO_PRES NEWDELHI_LAT NEWDELHI_LON NEWDELHI_GRADE NEWDELHI_WIND NEWDELHI_PRES NEWDELHI_CI NEWDELHI_DP NEWDELHI_POCI REUNION_LAT REUNION_LON REUNION_TYPE REUNION_WIND REUNION_PRES REUNION_TNUM REUNION_CI REUNION_RMW REUNION_R34_NE REUNION_R34_SE REUNION_R34_SW REUNION_R34_NW REUNION_R50_NE REUNION_R50_SE REUNION_R50_SW REUNION_R50_NW REUNION_R64_NE REUNION_R64_SE REUNION_R64_SW REUNION_R64_NW BOM_LAT BOM_LON BOM_TYPE BOM_WIND BOM_PRES BOM_TNUM BOM_CI BOM_RMW BOM_R34_NE BOM_R34_SE BOM_R34_SW BOM_R34_NW BOM_R50_NE BOM_R50_SE BOM_R50_SW BOM_R50_NW BOM_R64_NE BOM_R64_SE BOM_R64_SW BOM_R64_NW BOM_ROCI BOM_POCI BOM_EYE BOM_POS_METHOD BOM_PRES_METHOD NADI_LAT NADI_LON NADI_CAT NADI_WIND NADI_PRES WELLINGTON_LAT WELLINGTON_LON WELLINGTON_WIND WELLINGTON_PRES DS824_LAT DS824_LON DS824_STAGE DS824_WIND DS824_PRES TD9636_LAT TD9636_LON TD9636_STAGE TD9636_WIND TD9636_PRES TD9635_LAT TD9635_LON TD9635_WIND TD9635_PRES TD9635_ROCI NEUMANN_LAT NEUMANN_LON NEUMANN_CLASS NEUMANN_WIND NEUMANN_PRES MLC_LAT MLC_LON MLC_CLASS MLC_WIND MLC_PRES USA_GUST BOM_GUST BOM_GUST_PER REUNION_GUST REUNION_GUST_PER USA_SEAHGT USA_SEARAD_NE USA_SEARAD_SE USA_SEARAD_SW USA_SEARAD_NW STORM_SPEED STORM_DIR
1918252N14300 1918 59 NA CS NOT_NAMED 1918-09-09 00:00:00 TS 13.9000 -59.8000 35 hurdat_atl main 381 377 O_____________ hurdat_atl AL061918 13.9000 -59.8000 TS 35 0 10 295
1918252N14300 1918 59 NA CS NOT_NAMED 1918-09-09 03:00:00 TS 14.1002 -60.2498 main 390 388 P_____________ AL061918 14.1002 -60.2498 TS 35 0 10 295
1918252N14300 1918 59 NA CS NOT_NAMED 1918-09-09 06:00:00 TS 14.3000 -60.7000 35 hurdat_atl main 404 403 O_____________ hurdat_atl AL061918 14.3000 -60.7000 TS 35 0 10 295
1918252N14300 1918 59 NA CS NOT_NAMED 1918-09-09 09:00:00 TS 14.4999 -61.1501 main 425 425 P_____________ AL061918 14.4999 -61.1501 TS 35 0 10 295
1918252N14300 1918 59 NA CS NOT_NAMED 1918-09-09 12:00:00 TS 14.7000 -61.6000 35 hurdat_atl main 447 447 O_____________ hurdat_atl AL061918 14.7000 -61.6000 TS 35 0 10 295
1918252N14300 1918 59 NA CS NOT_NAMED 1918-09-09 15:00:00 TS 14.9075 -62.0575 main 470 470 P_____________ AL061918 14.9075 -62.0575 TS 35 0 10 295
1918252N14300 1918 59 NA CS NOT_NAMED 1918-09-09 18:00:00 TS 15.1000 -62.5000 35 hurdat_atl main 478 440 O_____________ hurdat_atl AL061918 15.1000 -62.5000 TS 35 0 9 293
1918252N14300 1918 59 NA CS NOT_NAMED 1918-09-09 21:00:00 TS 15.2574 -62.9076 main 432 394 P_____________ AL061918 15.2574 -62.9076 TS 35 0 8 291
1918252N14300 1918 59 NA CS NOT_NAMED 1918-09-10 00:00:00 TS 15.4000 -63.3000 35 hurdat_atl main 394 358 O_____________ hurdat_atl AL061918 15.4000 -63.3000 TS 35 0 8 291
1918252N14300 1918 59 NA CS NOT_NAMED 1918-09-10 03:00:00 TS 15.5499 -63.6926 main 358 314 P_____________ AL061918 15.5499 -63.6926 TS 35 0 8 291
1918252N14300 1918 59 NA CS NOT_NAMED 1918-09-10 06:00:00 TS 15.7000 -64.1000 35 hurdat_atl main 314 282 O_____________ hurdat_atl AL061918 15.7000 -64.1000 TS 35 0 9 291
1918252N14300 1918 59 NA CS NOT_NAMED 1918-09-10 09:00:00 TS 15.8573 -64.5201 main 272 239 P_____________ AL061918 15.8573 -64.5201 TS 35 0 9 289
1918252N14300 1918 59 NA CS NOT_NAMED 1918-09-10 12:00:00 TS 16.0000 -65.0000 35 hurdat_atl main 239 214 O_____________ hurdat_atl AL061918 16.0000 -65.0000 TS 35 0 10 284
1918252N14300 1918 59 NA CS NOT_NAMED 1918-09-10 15:00:00 TS 16.1074 -65.5701 main 211 190 P_____________ AL061918 16.1074 -65.5701 TS 35 0 12 280
1918252N14300 1918 59 NA CS NOT_NAMED 1918-09-10 18:00:00 TS 16.2000 -66.2000 35 hurdat_atl main 190 179 O_____________ hurdat_atl AL061918 16.2000 -66.2000 TS 35 0 12 279
1918252N14300 1918 59 NA CS NOT_NAMED 1918-09-10 21:00:00 TS 16.2999 -66.8500 main 179 167 P_____________ AL061918 16.2999 -66.8500 TS 35 0 13 279
1918252N14300 1918 59 NA CS NOT_NAMED 1918-09-11 00:00:00 TS 16.4000 -67.5000 35 hurdat_atl main 170 169 O_____________ hurdat_atl AL061918 16.4000 -67.5000 TS 35 0 12 279
1918252N14300 1918 59 NA CS NOT_NAMED 1918-09-11 03:00:00 TS 16.4997 -68.1001 main 183 179 P_____________ AL061918 16.4997 -68.1001 TS 37 0 12 280
1918252N14300 1918 59 NA CS NOT_NAMED 1918-09-11 06:00:00 TS 16.6000 -68.7000 40 hurdat_atl main 179 169 O_____________ hurdat_atl AL061918 16.6000 -68.7000 TS 40 0 12 280
1918252N14300 1918 59 NA CS NOT_NAMED 1918-09-11 09:00:00 TS 16.7074 -69.3500 main 176 158 P_____________ AL061918 16.7074 -69.3500 TS 40 0 13 279
1918252N14300 1918 59 NA CS NOT_NAMED 1918-09-11 12:00:00 TS 16.8000 -70.0000 40 hurdat_atl main 158 115 O_____________ hurdat_atl AL061918 16.8000 -70.0000 TS 40 0 12 277
1918252N14300 1918 59 NA CS NOT_NAMED 1918-09-11 15:00:00 TS 16.8572 -70.6001 main 115 81 P_____________ AL061918 16.8572 -70.6001 TS 40 0 12 275
1918252N14300 1918 59 NA CS NOT_NAMED 1918-09-11 18:00:00 TS 16.9000 -71.2000 40 hurdat_atl main 81 78 O_____________ hurdat_atl AL061918 16.9000 -71.2000 TS 40 0 12 274
1918252N14300 1918 59 NA CS NOT_NAMED 1918-09-11 21:00:00 TS 16.9499 -71.8500 main 94 85 P_____________ AL061918 16.9499 -71.8500 TS 40 0 12 275
1918252N14300 1918 59 NA CS NOT_NAMED 1918-09-12 00:00:00 TS 17.0000 -72.5000 40 hurdat_atl main 127 123 O_____________ hurdat_atl AL061918 17.0000 -72.5000 TS 40 0 12 275
1918252N14300 1918 59 NA CS NOT_NAMED 1918-09-12 03:00:00 TS 17.0497 -73.1000 main 127 101 P_____________ AL061918 17.0497 -73.1000 TS 40 0 12 275
1918252N14300 1918 59 NA CS NOT_NAMED 1918-09-12 06:00:00 TS 17.1000 -73.7000 40 hurdat_atl main 101 99 O_____________ hurdat_atl AL061918 17.1000 -73.7000 TS 40 0 12 275
1918252N14300 1918 59 NA CS NOT_NAMED 1918-09-12 09:00:00 TS 17.1574 -74.3499 main 99 99 P_____________ AL061918 17.1574 -74.3499 TS 40 0 12 275
1918252N14300 1918 59 NA CS NOT_NAMED 1918-09-12 12:00:00 TS 17.2000 -75.0000 40 hurdat_atl main 138 100 O_____________ hurdat_atl AL061918 17.2000 -75.0000 TS 40 0 12 272
1918252N14300 1918 59 NA CS NOT_NAMED 1918-09-12 15:00:00 TS 17.2072 -75.6001 main 100 78 P_____________ AL061918 17.2072 -75.6001 TS 37 0 11 270
1918252N14300 1918 59 NA CS NOT_NAMED 1918-09-12 18:00:00 TS 17.2000 -76.2000 35 hurdat_atl main 78 70 O_____________ hurdat_atl AL061918 17.2000 -76.2000 TS 35 0 12 269
1918252N14300 1918 59 NA CS NOT_NAMED 1918-09-12 21:00:00 TS 17.1924 -76.8501 main 64 55 P_____________ AL061918 17.1924 -76.8501 TS 35 0 12 270
1918252N14300 1918 59 NA CS NOT_NAMED 1918-09-13 00:00:00 TS 17.2000 -77.5000 35 hurdat_atl main 64 64 O_____________ hurdat_atl AL061918 17.2000 -77.5000 TS 35 0 12 272
1918252N14300 1918 59 NA CS NOT_NAMED 1918-09-13 03:00:00 TS 17.2347 -78.1000 main 89 89 P_____________ AL061918 17.2347 -78.1000 TS 35 0 12 275
1918252N14300 1918 59 NA CS NOT_NAMED 1918-09-13 06:00:00 TS 17.3000 -78.7000 35 hurdat_atl main 105 105 O_____________ hurdat_atl AL061918 17.3000 -78.7000 TS 35 0 12 277
1918252N14300 1918 59 NA CS NOT_NAMED 1918-09-13 09:00:00 TS 17.3849 -79.3500 main 138 138 P_____________ AL061918 17.3849 -79.3500 TS 35 0 13 279
1918252N14300 1918 59 NA CS NOT_NAMED 1918-09-13 12:00:00 TS 17.5000 -80.0000 35 hurdat_atl main 186 186 O_____________ hurdat_atl AL061918 17.5000 -80.0000 TS 35 0 12 281
1918252N14300 1918 59 NA CS NOT_NAMED 1918-09-13 15:00:00 TS 17.6198 -80.6152 main 242 242 P_____________ AL061918 17.6198 -80.6152 TS 35 0 12 285
1918252N14300 1918 59 NA CS NOT_NAMED 1918-09-13 18:00:00 TS 17.8000 -81.2000 35 hurdat_atl main 299 299 O_____________ hurdat_atl AL061918 17.8000 -81.2000 TS 35 0 12 293
1918252N14300 1918 59 NA CS NOT_NAMED 1918-09-13 21:00:00 TS 18.0848 -81.7649 main 356 339 P_____________ AL061918 18.0848 -81.7649 TS 35 0 12 300
1918252N14300 1918 59 NA CS NOT_NAMED 1918-09-14 00:00:00 TS 18.4000 -82.3000 35 hurdat_atl main 339 313 O_____________ hurdat_atl AL061918 18.4000 -82.3000 TS 35 0 12 299
1918252N14300 1918 59 NA CS NOT_NAMED 1918-09-14 03:00:00 TS 18.6500 -82.8302 main 313 282 P_____________ AL061918 18.6500 -82.8302 TS 32 -1 11 298
1918252N14300 1918 59 NA CS NOT_NAMED 1918-09-14 06:00:00 TS 18.9000 -83.3000 30 hurdat_atl main 284 259 O_____________ hurdat_atl AL061918 18.9000 -83.3000 TD 30 -1 10 304
1918252N14300 1918 59 NA CS NOT_NAMED 1918-09-14 09:00:00 TS 19.1875 -83.6772 main 263 246 P_____________ AL061918 19.1875 -83.6772 TD 27 -1 9 312
1918252N14300 1918 59 NA CS NOT_NAMED 1918-09-14 12:00:00 TS 19.5000 -84.0000 25 hurdat_atl main 246 O_____________ hurdat_atl AL061918 19.5000 -84.0000 TD 25 -1 9 316

IBTrACS Databaseについて

本データベースは、米国NOAAが公開する1842年以降の世界の熱帯低気圧のベストトラックデータアーカイブInternational Best Track Archive for Climate Stewardship (IBTrACS)を、ウェブで閲覧しやすい形式に変換したものです。

最終更新日:2021-12-08